HOURLY OBS INDEX

026

Lower Southeast

CAPE JAFFA (THE LIMESTONE)

Site: 026095
Alt: 17.0m
22km N of ROBE


  Time     Wind        Temp  DP   Baro     Rain since   Rain past  Vis(m), Cloud(base in m), Weather
  local        km/h                         9am  last   hr   10m    
Sat 10:30  NNW 15/ 20  14.3 10.9  1028.3    0.0   0.0   0.0   0.0   ----- 
Sat 11:00  NNW 15/ 20  14.7 11.3  1028.1    0.0   0.0   0.0   0.0   ----- 
Sat 11:30  NNW 15/ 19  15.4 12.3  1028.0    0.0   0.0   0.0   0.0   ----- 
Sat 11:30  NNW 15/ 19  15.4 12.3  1028.0    0.0   0.0  ----   0.0   ----- 
Sat 12:00  NNW 13/ 17  15.4 11.0  1027.7    0.0   0.0   0.0   0.0   ----- 
Sat 12:30  WNW 13/ 19  16.2 11.8  1027.7    0.0   0.0   0.0   0.0   ----- 
Sat 12:30  WNW 13/ 19  16.2 11.8  1027.7    0.0   0.0  ----   0.0   ----- 
Sat 13:00    W 13/ 20  15.5 10.9  1027.6    0.0   0.0   0.0   0.0   ----- 
Sat 13:30  WNW 13/ 22  16.3 12.1  1027.2    0.0   0.0   0.0   0.0   ----- 
Sat 14:00    W 13/ 22  16.5 10.8  1027.0    0.0   0.0   0.0   0.0   ----- 
Sat 14:30    W 17/ 22  16.1 12.3  1027.0    0.0   0.0   0.0   0.0   ----- 
Sat 15:00  WSW 19/ 22  16.0 11.6  1027.0    0.0   0.0   0.0   0.0   ----- 
Sat 15:30   SW 17/ 22  14.7 10.5  1027.2    0.0   0.0   0.0   0.0   ----- 
Sat 16:00   SW 19/ 22  15.1 10.7  1027.1    0.0   0.0   0.0   0.0   ----- 

COONAWARRA

Site: 026091
Alt: 57.0m
38km SSE of NARACOORTE


  Time     Wind        Temp  DP   Baro     Rain since   Rain past  Vis(m), Cloud(base in m), Weather
  local        km/h                         9am  last   hr   10m    
Sat 10:30  WNW 13/ 24  14.8  8.7  1028.3    0.0   0.0   0.0   0.0   ----- 
Sat 11:00    W 15/ 20  15.3  9.5  1028.1    0.0   0.0   0.0   0.0   ----- 
Sat 11:30  WNW 11/ 19  15.8  9.2  1027.8    0.0   0.0   0.0   0.0   ----- 
Sat 11:30  WNW 11/ 19  15.8  9.2  1027.8    0.0   0.0  ----   0.0   ----- 
Sat 12:00    W 17/ 20  16.3  9.3  1027.5    0.0   0.0   0.0   0.0   ----- 
Sat 12:30  WNW 17/ 22  16.6  8.8  1027.3    0.0   0.0   0.0   0.0   ----- 
Sat 12:30  WNW 17/ 22  16.6  8.8  1027.3    0.0   0.0  ----   0.0   ----- 
Sat 13:00    W 19/ 26  16.7  8.4  1027.0    0.0   0.0   0.0   0.0   ----- 
Sat 13:30    W 20/ 26  16.8  8.3  1026.8    0.0   0.0   0.0   0.0   ----- 
Sat 14:00    W 17/ 26  17.9  8.8  1026.6    0.0   0.0   0.0   0.0   ----- 
Sat 14:30    W 19/ 26  17.5  8.8  1026.6    0.0   0.0   0.0   0.0   ----- 
Sat 15:00  WSW 15/ 22  17.7  9.5  1026.5    0.0   0.0   0.0   0.0   ----- 
Sat 15:30  SSW 17/ 24  16.7  9.6  1026.6    0.0   0.0   0.0   0.0   ----- 
Sat 16:00   SW 19/ 28  16.3  9.1  1026.5    0.0   0.0   0.0   0.0   ----- 

MOUNT GAMBIER AERO

Site: 026021
Alt: 63.0m
9km N of MOUNT GAMBIER


  Time     Wind        Temp  DP   Baro     Rain since   Rain past  Vis(m), Cloud(base in m), Weather
  local        km/h                         9am  last   hr   10m    
Sat 10:30  NNW 13/ 20  13.2 10.0  1028.1    0.0   0.0   0.0   0.0   10000|BR 480 OC 960 
Sat 11:00  NNW 13/ 17  13.4 10.4  1027.8    0.0   0.0   0.0   0.0   10000|BR 480 BR 660 OC 780 
Sat 11:30    W 15/ 19  14.1 11.1  1027.7    0.0   0.0   0.0   0.0   10000|BR 480 OC 600 OC 810 
Sat 11:30    W 15/ 19  14.1 11.1  1027.7    0.0   0.0  ----   0.0   10000|BR 480 OC 600 OC 810 
Sat 12:00    W 17/ 19  14.2 10.6  1027.6    0.0   0.0   0.0   0.0   10000|SC 540 BR 690 OC 900 
Sat 12:30  WNW 17/ 24  14.9 10.7  1027.2    0.0   0.0   0.0   0.0   10000|SC 750 OC 960 
Sat 12:30  WNW 17/ 24  14.9 10.7  1027.2    0.0   0.0  ----   0.0   10000|SC 750 OC 960 
Sat 13:00    W 20/ 28  14.2 10.8  1027.3    0.0   0.0   0.0   0.0   10000|SC 570 BR 750 OC 960 
Sat 13:30    W 22/ 28  14.9 10.1  1026.9    0.0   0.0   0.0   0.0   10000|SC 630 SC 840 OC1050 
Sat 14:00    W 26/ 33  15.2  8.7  1026.7    0.0   0.0   0.0   0.0   10000|SC 720 OC1020 
Sat 14:30    W 24/ 30  15.5  9.8  1026.8    0.0   0.0   0.0   0.0   10000|OC1020 
Sat 15:00    W 24/ 33  14.8  8.5  1026.9    0.0   0.0   0.0   0.0   10000|OC 960 
Sat 15:30    W 20/ 30  14.8  8.7  1026.7    0.0   0.0   0.0   0.0   10000|OC 960 
Sat 16:00    W 20/ 28  14.8  8.5  1026.7    0.0   0.0   0.0   0.0   10000|SC 900 

NARACOORTE AERODROME

Site: 026099
Alt: 49.7m
3km SSW of NARACOORTE


  Time     Wind        Temp  DP   Baro     Rain since   Rain past  Vis(m), Cloud(base in m), Weather
  local        km/h                         9am  last   hr   10m    
Sat 10:30  WSW 13/ 17  14.8 10.4  1028.5    0.0   0.0   0.0   0.0   ----- 
Sat 11:00  WNW  9/ 13  14.8  9.4  1027.9    0.0   0.0   0.0   0.0   ----- 
Sat 11:30    W 17/ 22  16.1 11.3  1027.9    0.0   0.0   0.0   0.0   ----- 
Sat 11:30    W 17/ 22  16.1 11.3  1027.9    0.0   0.0  ----   0.0   ----- 
Sat 12:00    W 13/ 20  16.5 11.4  1027.3    0.0   0.0   0.0   0.0   ----- 
Sat 12:30    W 13/ 22  16.2 10.3  1027.1    0.0   0.0   0.0   0.0   ----- 
Sat 12:30    W 13/ 22  16.2 10.3  1027.1    0.0   0.0  ----   0.0   ----- 
Sat 13:00  WSW 17/ 24  16.9 10.3  1026.8    0.0   0.0   0.0   0.0   ----- 
Sat 13:30    W 20/ 26  17.6 10.9  1026.6    0.0   0.0   0.0   0.0   ----- 
Sat 14:00  WSW 20/ 37  17.8 10.2  1026.3    0.0   0.0   0.0   0.0   ----- 
Sat 14:30   SW 19/ 28  17.0 10.6  1026.1    0.0   0.0   0.0   0.0   ----- 
Sat 15:00   SW 17/ 22  17.3 11.1  1026.2    0.0   0.0   0.0   0.0   ----- 
Sat 15:30  WSW 19/ 26  17.1  9.8  1026.2    0.0   0.0   0.0   0.0   ----- 
Sat 16:00  WSW 17/ 20  16.8 10.2  1026.3    0.0   0.0   0.0   0.0   ----- 

PADTHAWAY SOUTH

Site: 026100
Alt: 37.0m
38km NNW of NARACOORTE


  Time     Wind        Temp  DP   Baro     Rain since   Rain past  Vis(m), Cloud(base in m), Weather
  local        km/h                         9am  last   hr   10m    
Sat 10:30   NW  6/ 13  15.4  8.9  ------    0.0   0.0   0.0   0.0   ----- 
Sat 11:00  WSW  2/ 15  15.6  9.1  ------    0.0   0.0   0.0   0.0   ----- 
Sat 11:30    W  9/ 17  16.7  9.4  ------    0.0   0.0   0.0   0.0   ----- 
Sat 11:30    W  9/ 17  16.7  9.4  ------    0.0   0.0  ----   0.0   ----- 
Sat 12:00    W  9/ 17  17.3 10.0  ------    0.0   0.0   0.0   0.0   ----- 
Sat 12:30    W  7/ 17  17.8  9.9  ------    0.0   0.0   0.0   0.0   ----- 
Sat 12:30    W  7/ 17  17.8  9.9  ------    0.0   0.0  ----   0.0   ----- 
Sat 13:00    W 13/ 22  18.0  9.1  ------    0.0   0.0   0.0   0.0   ----- 
Sat 13:30  WSW 19/ 24  18.5  9.3  ------    0.0   0.0   0.0   0.0   ----- 
Sat 14:00  WSW 15/ 26  18.9 10.2  ------    0.0   0.0   0.0   0.0   ----- 
Sat 14:30    W 17/ 28  19.1  9.3  ------    0.0   0.0   0.0   0.0   ----- 
Sat 15:00  WSW 13/ 22  18.7 10.0  ------    0.0   0.0   0.0   0.0   ----- 
Sat 15:30  WSW 15/ 22  18.1  9.2  ------    0.0   0.0   0.0   0.0   ----- 
Sat 16:00   SW 11/ 20  17.8  9.4  ------    0.0   0.0   0.0   0.0   ----- 

ROBE AIRFIELD

Site: 026105
Alt: 3.0m
5km ESE of ROBE


  Time     Wind        Temp  DP   Baro     Rain since   Rain past  Vis(m), Cloud(base in m), Weather
  local        km/h                         9am  last   hr   10m    
Sat 10:30   NW 15/ 19  14.0 11.5  1028.3    0.0   0.0   0.0   0.0   ----- 
Sat 11:00   NW 17/ 22  14.5 11.8  1028.0    0.0   0.0   0.0   0.0   ----- 
Sat 11:30  NNW 15/ 19  15.2 12.5  1027.9    0.0   0.0   0.0   0.0   ----- 
Sat 11:30  NNW 15/ 19  15.2 12.5  1027.9    0.0   0.0  ----   0.0   ----- 
Sat 12:00   NW 15/ 20  15.6 13.1  1027.7    0.0   0.0   0.0   0.0   ----- 
Sat 12:30  WNW 13/ 19  15.1 12.2  1027.7    0.0   0.0   0.0   0.0   ----- 
Sat 12:30  WNW 13/ 19  15.1 12.2  1027.7    0.0   0.0  ----   0.0   ----- 
Sat 13:00   NW 13/ 20  14.9 12.8  1027.5    0.0   0.0   0.0   0.0   ----- 
Sat 13:30  NNW 15/ 20  16.1 13.0  1027.0    0.0   0.0   0.0   0.0   ----- 
Sat 14:00  NNW 15/ 20  15.4 13.1  1026.9    0.0   0.0   0.0   0.0   ----- 
Sat 14:30   SW 11/ 19  15.3 12.1  1027.1    0.0   0.0   0.0   0.0   ----- 
Sat 15:00   SW 15/ 24  15.5 11.3  1027.1    0.0   0.0   0.0   0.0   ----- 
Sat 15:30   SW 11/ 20  15.4 11.6  1027.2    0.0   0.0   0.0   0.0   ----- 
Sat 16:00  SSW 13/ 20  15.3 11.5  1027.2    0.0   0.0   0.0   0.0   -----